sensor_id;sensor_type;location;lat;lon;timestamp;pressure;altitude;pressure_sealevel;temperature;humidity
63903;BME280;50072;50.678;13.938;2023-08-06T00:00:31;98721.22;;;15.20;100.00
63903;BME280;50072;50.678;13.938;2023-08-06T00:03:16;98729.53;;;15.31;100.00
63903;BME280;50072;50.678;13.938;2023-08-06T00:05:51;98737.03;;;15.26;100.00
63903;BME280;50072;50.678;13.938;2023-08-06T00:08:19;98730.00;;;15.24;100.00
63903;BME280;50072;50.678;13.938;2023-08-06T00:10:50;98725.09;;;15.30;100.00
63903;BME280;50072;50.678;13.938;2023-08-06T00:13:16;98730.69;;;15.27;100.00
63903;BME280;50072;50.678;13.938;2023-08-06T00:15:49;98726.25;;;15.26;100.00
63903;BME280;50072;50.678;13.938;2023-08-06T00:18:21;98727.13;;;15.27;100.00
63903;BME280;50072;50.678;13.938;2023-08-06T00:20:49;98721.75;;;15.27;100.00
63903;BME280;50072;50.678;13.938;2023-08-06T00:23:15;98724.34;;;15.28;100.00
63903;BME280;50072;50.678;13.938;2023-08-06T00:25:40;98724.72;;;15.22;100.00
63903;BME280;50072;50.678;13.938;2023-08-06T00:28:07;98721.22;;;15.20;100.00
63903;BME280;50072;50.678;13.938;2023-08-06T00:30:33;98714.59;;;15.26;100.00
63903;BME280;50072;50.678;13.938;2023-08-06T00:32:59;98711.81;;;15.27;100.00
63903;BME280;50072;50.678;13.938;2023-08-06T00:35:24;98706.84;;;15.35;100.00
63903;BME280;50072;50.678;13.938;2023-08-06T00:37:50;98703.38;;;15.33;100.00
63903;BME280;50072;50.678;13.938;2023-08-06T00:40:20;98702.97;;;15.25;100.00
63903;BME280;50072;50.678;13.938;2023-08-06T00:42:48;98692.09;;;15.27;100.00
63903;BME280;50072;50.678;13.938;2023-08-06T00:45:14;98691.75;;;15.17;100.00
63903;BME280;50072;50.678;13.938;2023-08-06T00:47:41;98684.72;;;15.14;100.00
63903;BME280;50072;50.678;13.938;2023-08-06T00:50:08;98684.72;;;15.14;100.00
63903;BME280;50072;50.678;13.938;2023-08-06T00:52:35;98676.34;;;15.19;100.00
63903;BME280;50072;50.678;13.938;2023-08-06T00:55:03;98667.31;;;15.20;100.00
63903;BME280;50072;50.678;13.938;2023-08-06T00:57:30;98661.94;;;15.20;100.00
63903;BME280;50072;50.678;13.938;2023-08-06T00:59:56;98655.69;;;15.19;100.00
63903;BME280;50072;50.678;13.938;2023-08-06T01:02:22;98650.19;;;15.21;100.00
63903;BME280;50072;50.678;13.938;2023-08-06T01:04:47;98643.06;;;15.20;100.00
63903;BME280;50072;50.678;13.938;2023-08-06T01:12:45;98610.91;;;15.17;100.00
63903;BME280;50072;50.678;13.938;2023-08-06T01:15:25;98601.84;;;15.04;100.00
63903;BME280;50072;50.678;13.938;2023-08-06T01:17:54;98602.69;;;15.04;100.00
63903;BME280;50072;50.678;13.938;2023-08-06T01:20:20;98597.81;;;15.11;100.00
63903;BME280;50072;50.678;13.938;2023-08-06T01:22:46;98598.78;;;15.10;100.00
63903;BME280;50072;50.678;13.938;2023-08-06T01:25:15;98600.63;;;15.09;100.00
63903;BME280;50072;50.678;13.938;2023-08-06T01:27:46;98613.78;;;15.14;100.00
63903;BME280;50072;50.678;13.938;2023-08-06T01:30:16;98603.56;;;15.05;100.00
63903;BME280;50072;50.678;13.938;2023-08-06T01:32:45;98605.56;;;14.87;100.00
63903;BME280;50072;50.678;13.938;2023-08-06T01:35:14;98610.44;;;14.80;100.00
63903;BME280;50072;50.678;13.938;2023-08-06T01:37:43;98613.72;;;14.85;100.00
63903;BME280;50072;50.678;13.938;2023-08-06T01:40:13;98614.78;;;14.82;100.00
63903;BME280;50072;50.678;13.938;2023-08-06T01:42:39;98615.22;;;14.75;100.00
63903;BME280;50072;50.678;13.938;2023-08-06T01:45:07;98611.34;;;14.64;100.00
63903;BME280;50072;50.678;13.938;2023-08-06T01:47:35;98617.91;;;14.59;100.00
63903;BME280;50072;50.678;13.938;2023-08-06T01:50:02;98621.91;;;14.52;100.00
63903;BME280;50072;50.678;13.938;2023-08-06T01:52:29;98631.84;;;14.51;100.00
63903;BME280;50072;50.678;13.938;2023-08-06T01:54:55;98629.22;;;14.49;100.00
63903;BME280;50072;50.678;13.938;2023-08-06T01:57:22;98628.34;;;14.49;100.00
63903;BME280;50072;50.678;13.938;2023-08-06T01:59:47;98632.78;;;14.66;100.00
63903;BME280;50072;50.678;13.938;2023-08-06T02:02:13;98625.41;;;14.54;100.00
63903;BME280;50072;50.678;13.938;2023-08-06T02:04:39;98616.44;;;14.53;100.00
63903;BME280;50072;50.678;13.938;2023-08-06T02:07:04;98602.66;;;14.59;100.00
63903;BME280;50072;50.678;13.938;2023-08-06T02:09:30;98601.41;;;14.65;100.00
63903;BME280;50072;50.678;13.938;2023-08-06T02:11:56;98606.09;;;14.61;100.00
63903;BME280;50072;50.678;13.938;2023-08-06T02:14:22;98608.78;;;14.61;100.00
63903;BME280;50072;50.678;13.938;2023-08-06T02:16:48;98606.03;;;14.63;100.00
63903;BME280;50072;50.678;13.938;2023-08-06T02:19:15;98604.81;;;14.69;100.00
63903;BME280;50072;50.678;13.938;2023-08-06T02:21:41;98609.81;;;14.75;100.00
63903;BME280;50072;50.678;13.938;2023-08-06T02:24:06;98603.41;;;14.77;100.00
63903;BME280;50072;50.678;13.938;2023-08-06T02:26:32;98597.91;;;14.79;100.00
63903;BME280;50072;50.678;13.938;2023-08-06T02:28:58;98589.41;;;14.71;100.00
63903;BME280;50072;50.678;13.938;2023-08-06T02:31:24;98584.03;;;14.71;100.00
63903;BME280;50072;50.678;13.938;2023-08-06T02:33:49;98590.97;;;14.75;100.00
63903;BME280;50072;50.678;13.938;2023-08-06T02:36:16;98592.94;;;14.87;100.00
63903;BME280;50072;50.678;13.938;2023-08-06T02:38:42;98582.78;;;14.92;100.00
63903;BME280;50072;50.678;13.938;2023-08-06T02:41:08;98584.66;;;14.90;100.00
63903;BME280;50072;50.678;13.938;2023-08-06T02:43:33;98578.94;;;14.96;100.00
63903;BME280;50072;50.678;13.938;2023-08-06T02:46:00;98574.59;;;14.94;100.00
63903;BME280;50072;50.678;13.938;2023-08-06T02:48:26;98587.28;;;14.92;100.00
63903;BME280;50072;50.678;13.938;2023-08-06T02:50:52;98580.16;;;14.91;100.00
63903;BME280;50072;50.678;13.938;2023-08-06T02:53:17;98574.41;;;14.97;100.00
63903;BME280;50072;50.678;13.938;2023-08-06T02:55:48;98568.81;;;15.00;100.00
63903;BME280;50072;50.678;13.938;2023-08-06T02:58:17;98573.34;;;14.99;100.00
63903;BME280;50072;50.678;13.938;2023-08-06T03:01:03;98564.47;;;14.97;100.00
63903;BME280;50072;50.678;13.938;2023-08-06T03:03:37;98564.06;;;14.89;100.00
63903;BME280;50072;50.678;13.938;2023-08-06T03:06:04;98564.25;;;14.86;100.00
63903;BME280;50072;50.678;13.938;2023-08-06T03:08:37;98571.34;;;14.73;100.00
63903;BME280;50072;50.678;13.938;2023-08-06T03:11:09;98566.34;;;14.66;100.00
63903;BME280;50072;50.678;13.938;2023-08-06T03:13:37;98565.66;;;14.63;100.00
63903;BME280;50072;50.678;13.938;2023-08-06T03:16:09;98558.78;;;14.57;100.00
63903;BME280;50072;50.678;13.938;2023-08-06T03:18:37;98556.06;;;14.57;100.00
63903;BME280;50072;50.678;13.938;2023-08-06T03:21:03;98544.63;;;14.54;100.00
63903;BME280;50072;50.678;13.938;2023-08-06T03:23:29;98545.13;;;14.60;100.00
63903;BME280;50072;50.678;13.938;2023-08-06T03:25:55;98540.28;;;14.67;100.00
63903;BME280;50072;50.678;13.938;2023-08-06T03:28:24;98540.78;;;14.74;100.00
63903;BME280;50072;50.678;13.938;2023-08-06T03:31:04;98530.78;;;14.76;100.00
63903;BME280;50072;50.678;13.938;2023-08-06T03:33:30;98533.28;;;14.79;100.00
63903;BME280;50072;50.678;13.938;2023-08-06T03:35:57;98537.72;;;14.80;100.00
63903;BME280;50072;50.678;13.938;2023-08-06T03:38:22;98534.63;;;14.86;100.00
63903;BME280;50072;50.678;13.938;2023-08-06T03:40:49;98528.69;;;14.81;100.00
63903;BME280;50072;50.678;13.938;2023-08-06T03:43:15;98533.88;;;14.84;100.00
63903;BME280;50072;50.678;13.938;2023-08-06T03:45:41;98532.72;;;14.88;100.00
63903;BME280;50072;50.678;13.938;2023-08-06T03:48:08;98524.44;;;14.91;100.00
63903;BME280;50072;50.678;13.938;2023-08-06T03:50:34;98526.09;;;14.94;100.00
63903;BME280;50072;50.678;13.938;2023-08-06T03:53:01;98514.81;;;14.87;100.00
63903;BME280;50072;50.678;13.938;2023-08-06T03:55:27;98514.44;;;14.93;100.00
63903;BME280;50072;50.678;13.938;2023-08-06T03:57:53;98508.38;;;14.90;100.00
63903;BME280;50072;50.678;13.938;2023-08-06T04:00:19;98509.25;;;14.90;100.00
63903;BME280;50072;50.678;13.938;2023-08-06T04:02:45;98506.75;;;14.87;100.00
63903;BME280;50072;50.678;13.938;2023-08-06T04:05:11;98498.75;;;14.86;100.00
63903;BME280;50072;50.678;13.938;2023-08-06T04:07:37;98498.84;;;14.84;100.00
63903;BME280;50072;50.678;13.938;2023-08-06T04:10:04;98483.25;;;14.89;100.00
63903;BME280;50072;50.678;13.938;2023-08-06T04:12:30;98491.16;;;14.92;100.00
63903;BME280;50072;50.678;13.938;2023-08-06T04:14:58;98480.66;;;14.88;100.00
63903;BME280;50072;50.678;13.938;2023-08-06T04:17:24;98486.13;;;14.86;100.00
63903;BME280;50072;50.678;13.938;2023-08-06T04:19:51;98474.31;;;14.89;100.00
63903;BME280;50072;50.678;13.938;2023-08-06T04:22:18;98477.09;;;14.87;100.00
63903;BME280;50072;50.678;13.938;2023-08-06T04:24:45;98477.81;;;14.91;100.00
63903;BME280;50072;50.678;13.938;2023-08-06T04:27:12;98484.25;;;14.88;100.00
63903;BME280;50072;50.678;13.938;2023-08-06T04:29:39;98472.66;;;14.86;100.00
63903;BME280;50072;50.678;13.938;2023-08-06T04:32:06;98477.69;;;14.92;100.00
63903;BME280;50072;50.678;13.938;2023-08-06T04:34:33;98476.56;;;14.96;100.00
63903;BME280;50072;50.678;13.938;2023-08-06T04:37:01;98474.63;;;14.98;100.00
63903;BME280;50072;50.678;13.938;2023-08-06T04:39:27;98466.34;;;14.87;100.00
63903;BME280;50072;50.678;13.938;2023-08-06T04:41:53;98465.38;;;14.74;100.00
63903;BME280;50072;50.678;13.938;2023-08-06T04:44:20;98459.38;;;14.69;100.00
63903;BME280;50072;50.678;13.938;2023-08-06T04:46:46;98452.38;;;14.66;100.00
63903;BME280;50072;50.678;13.938;2023-08-06T04:49:12;98454.00;;;14.69;100.00
63903;BME280;50072;50.678;13.938;2023-08-06T04:51:37;98450.72;;;14.63;100.00
63903;BME280;50072;50.678;13.938;2023-08-06T04:54:04;98445.94;;;14.69;100.00
63903;BME280;50072;50.678;13.938;2023-08-06T04:56:30;98449.75;;;14.64;100.00
63903;BME280;50072;50.678;13.938;2023-08-06T04:58:56;98437.94;;;14.67;100.00
63903;BME280;50072;50.678;13.938;2023-08-06T05:01:21;98444.97;;;14.70;100.00
63903;BME280;50072;50.678;13.938;2023-08-06T05:03:47;98436.81;;;14.71;100.00
63903;BME280;50072;50.678;13.938;2023-08-06T05:06:13;98440.34;;;14.72;100.00
63903;BME280;50072;50.678;13.938;2023-08-06T05:08:40;98446.53;;;14.88;100.00
63903;BME280;50072;50.678;13.938;2023-08-06T05:11:06;98434.97;;;14.72;100.00
63903;BME280;50072;50.678;13.938;2023-08-06T05:13:32;98435.66;;;14.75;100.00
63903;BME280;50072;50.678;13.938;2023-08-06T05:15:58;98437.94;;;14.81;100.00
63903;BME280;50072;50.678;13.938;2023-08-06T05:18:24;98437.09;;;14.95;100.00
63903;BME280;50072;50.678;13.938;2023-08-06T05:20:49;98430.91;;;14.93;100.00
63903;BME280;50072;50.678;13.938;2023-08-06T05:23:15;98432.97;;;14.90;100.00
63903;BME280;50072;50.678;13.938;2023-08-06T05:25:42;98430.81;;;14.80;100.00
63903;BME280;50072;50.678;13.938;2023-08-06T05:28:08;98424.69;;;14.78;100.00
63903;BME280;50072;50.678;13.938;2023-08-06T05:30:34;98422.47;;;14.85;100.00
63903;BME280;50072;50.678;13.938;2023-08-06T05:33:04;98423.44;;;14.84;100.00
63903;BME280;50072;50.678;13.938;2023-08-06T05:35:30;98412.16;;;14.92;100.00
63903;BME280;50072;50.678;13.938;2023-08-06T05:37:55;98419.00;;;14.97;100.00
63903;BME280;50072;50.678;13.938;2023-08-06T05:40:21;98427.88;;;14.99;100.00
63903;BME280;50072;50.678;13.938;2023-08-06T05:42:47;98418.69;;;15.02;100.00
63903;BME280;50072;50.678;13.938;2023-08-06T05:45:13;98417.53;;;15.06;100.00
63903;BME280;50072;50.678;13.938;2023-08-06T05:47:39;98417.53;;;15.06;100.00
63903;BME280;50072;50.678;13.938;2023-08-06T05:50:06;98417.16;;;15.12;100.00
63903;BME280;50072;50.678;13.938;2023-08-06T05:52:32;98423.22;;;15.16;100.00
63903;BME280;50072;50.678;13.938;2023-08-06T05:54:57;98413.31;;;15.16;100.00
63903;BME280;50072;50.678;13.938;2023-08-06T05:57:24;98410.72;;;15.15;100.00
63903;BME280;50072;50.678;13.938;2023-08-06T05:59:50;98410.13;;;15.24;100.00
63903;BME280;50072;50.678;13.938;2023-08-06T06:02:16;98414.13;;;15.31;100.00
63903;BME280;50072;50.678;13.938;2023-08-06T06:04:45;98404.06;;;15.21;100.00
63903;BME280;50072;50.678;13.938;2023-08-06T06:07:10;98414.38;;;15.14;100.00
63903;BME280;50072;50.678;13.938;2023-08-06T06:09:36;98414.16;;;15.17;100.00
63903;BME280;50072;50.678;13.938;2023-08-06T06:12:03;98406.94;;;15.17;100.00
63903;BME280;50072;50.678;13.938;2023-08-06T06:14:28;98408.78;;;15.17;100.00
63903;BME280;50072;50.678;13.938;2023-08-06T06:16:54;98412.06;;;15.22;100.00
63903;BME280;50072;50.678;13.938;2023-08-06T06:19:29;98406.81;;;15.48;100.00
63903;BME280;50072;50.678;13.938;2023-08-06T06:21:55;98408.13;;;15.55;100.00
63903;BME280;50072;50.678;13.938;2023-08-06T06:24:23;98412.41;;;15.72;100.00
63903;BME280;50072;50.678;13.938;2023-08-06T06:26:49;98404.50;;;15.69;100.00
63903;BME280;50072;50.678;13.938;2023-08-06T06:29:15;98403.44;;;15.71;100.00
63903;BME280;50072;50.678;13.938;2023-08-06T06:31:41;98406.91;;;15.74;100.00
63903;BME280;50072;50.678;13.938;2023-08-06T06:34:06;98399.00;;;15.85;100.00
63903;BME280;50072;50.678;13.938;2023-08-06T06:36:33;98397.25;;;15.84;100.00
63903;BME280;50072;50.678;13.938;2023-08-06T06:38:59;98406.66;;;15.91;100.00
63903;BME280;50072;50.678;13.938;2023-08-06T06:41:25;98403.97;;;15.91;100.00
63903;BME280;50072;50.678;13.938;2023-08-06T06:43:51;98403.06;;;16.18;100.00
63903;BME280;50072;50.678;13.938;2023-08-06T06:46:17;98404.59;;;16.35;100.00
63903;BME280;50072;50.678;13.938;2023-08-06T06:48:43;98407.09;;;16.38;100.00
63903;BME280;50072;50.678;13.938;2023-08-06T06:51:10;98402.66;;;16.37;100.00
63903;BME280;50072;50.678;13.938;2023-08-06T06:53:35;98409.34;;;16.31;100.00
63903;BME280;50072;50.678;13.938;2023-08-06T06:56:02;98407.53;;;16.32;100.00
63903;BME280;50072;50.678;13.938;2023-08-06T06:58:29;98408.41;;;16.45;100.00
63903;BME280;50072;50.678;13.938;2023-08-06T07:00:55;98406.66;;;16.57;100.00
63903;BME280;50072;50.678;13.938;2023-08-06T07:03:21;98417.03;;;16.37;100.00
63903;BME280;50072;50.678;13.938;2023-08-06T07:05:47;98418.88;;;16.63;100.00
63903;BME280;50072;50.678;13.938;2023-08-06T07:08:12;98421.06;;;16.70;100.00
63903;BME280;50072;50.678;13.938;2023-08-06T07:10:41;98413.69;;;16.72;100.00
63903;BME280;50072;50.678;13.938;2023-08-06T07:13:07;98425.28;;;16.74;100.00
63903;BME280;50072;50.678;13.938;2023-08-06T07:15:33;98415.75;;;16.82;100.00
63903;BME280;50072;50.678;13.938;2023-08-06T07:17:59;98412.94;;;16.83;100.00
63903;BME280;50072;50.678;13.938;2023-08-06T07:20:25;98414.47;;;16.87;100.00
63903;BME280;50072;50.678;13.938;2023-08-06T07:22:51;98405.72;;;16.97;100.00
63903;BME280;50072;50.678;13.938;2023-08-06T07:25:17;98411.44;;;17.05;100.00
63903;BME280;50072;50.678;13.938;2023-08-06T07:27:44;98404.06;;;17.07;100.00
63903;BME280;50072;50.678;13.938;2023-08-06T07:30:10;98390.25;;;17.12;100.00
63903;BME280;50072;50.678;13.938;2023-08-06T07:32:36;98400.81;;;17.15;100.00
63903;BME280;50072;50.678;13.938;2023-08-06T07:35:03;98391.72;;;17.16;100.00
63903;BME280;50072;50.678;13.938;2023-08-06T07:37:29;98391.84;;;17.14;100.00
63903;BME280;50072;50.678;13.938;2023-08-06T07:39:56;98397.81;;;17.06;100.00
63903;BME280;50072;50.678;13.938;2023-08-06T07:42:22;98401.69;;;17.15;100.00
63903;BME280;50072;50.678;13.938;2023-08-06T07:44:58;98394.22;;;17.19;100.00
63903;BME280;50072;50.678;13.938;2023-08-06T07:47:24;98390.88;;;17.15;100.00
63903;BME280;50072;50.678;13.938;2023-08-06T07:49:50;98383.94;;;17.11;100.00
63903;BME280;50072;50.678;13.938;2023-08-06T07:52:17;98388.84;;;17.06;100.00
63903;BME280;50072;50.678;13.938;2023-08-06T07:54:43;98384.53;;;17.03;100.00
63903;BME280;50072;50.678;13.938;2023-08-06T07:57:08;98383.75;;;17.01;100.00
63903;BME280;50072;50.678;13.938;2023-08-06T07:59:34;98379.34;;;17.00;100.00
63903;BME280;50072;50.678;13.938;2023-08-06T08:02:00;98380.31;;;16.99;100.00
63903;BME280;50072;50.678;13.938;2023-08-06T08:04:26;98383.25;;;16.96;100.00
63903;BME280;50072;50.678;13.938;2023-08-06T08:06:52;98376.81;;;17.10;100.00
63903;BME280;50072;50.678;13.938;2023-08-06T08:09:18;98374.66;;;17.15;100.00
63903;BME280;50072;50.678;13.938;2023-08-06T08:11:44;98366.22;;;17.07;100.00
63903;BME280;50072;50.678;13.938;2023-08-06T08:14:09;98369.00;;;17.18;100.00
63903;BME280;50072;50.678;13.938;2023-08-06T08:16:35;98362.28;;;17.24;100.00
63903;BME280;50072;50.678;13.938;2023-08-06T08:19:01;98363.50;;;17.20;100.00
63903;BME280;50072;50.678;13.938;2023-08-06T08:21:29;98352.66;;;17.20;100.00
63903;BME280;50072;50.678;13.938;2023-08-06T08:23:55;98362.97;;;17.15;100.00
63903;BME280;50072;50.678;13.938;2023-08-06T08:26:21;98358.91;;;16.96;100.00
63903;BME280;50072;50.678;13.938;2023-08-06T08:28:47;98349.69;;;16.86;100.00
63903;BME280;50072;50.678;13.938;2023-08-06T08:31:13;98360.09;;;17.05;100.00
63903;BME280;50072;50.678;13.938;2023-08-06T08:33:39;98349.34;;;17.16;100.00
63903;BME280;50072;50.678;13.938;2023-08-06T08:36:05;98352.59;;;17.08;100.00
63903;BME280;50072;50.678;13.938;2023-08-06T08:38:31;98334.22;;;17.14;100.00
63903;BME280;50072;50.678;13.938;2023-08-06T08:40:57;98329.84;;;17.24;100.00
63903;BME280;50072;50.678;13.938;2023-08-06T08:43:23;98332.44;;;17.25;100.00
63903;BME280;50072;50.678;13.938;2023-08-06T08:45:53;98340.63;;;17.37;100.00
63903;BME280;50072;50.678;13.938;2023-08-06T08:48:24;98337.78;;;17.38;100.00
63903;BME280;50072;50.678;13.938;2023-08-06T08:50:53;98336.28;;;17.34;100.00
63903;BME280;50072;50.678;13.938;2023-08-06T08:53:20;98341.88;;;17.44;100.00
63903;BME280;50072;50.678;13.938;2023-08-06T08:55:48;98332.63;;;17.35;100.00
63903;BME280;50072;50.678;13.938;2023-08-06T08:58:15;98334.44;;;17.11;100.00
63903;BME280;50072;50.678;13.938;2023-08-06T09:00:46;98336.38;;;17.08;100.00
63903;BME280;50072;50.678;13.938;2023-08-06T09:03:19;98340.16;;;17.19;100.00
63903;BME280;50072;50.678;13.938;2023-08-06T09:05:50;98349.63;;;17.00;100.00
63903;BME280;50072;50.678;13.938;2023-08-06T09:08:18;98352.44;;;16.99;100.00
63903;BME280;50072;50.678;13.938;2023-08-06T09:10:48;98345.28;;;16.98;100.00
63903;BME280;50072;50.678;13.938;2023-08-06T09:13:20;98341.06;;;16.94;100.00
63903;BME280;50072;50.678;13.938;2023-08-06T09:15:49;98342.25;;;17.02;100.00
63903;BME280;50072;50.678;13.938;2023-08-06T09:18:26;98340.28;;;17.17;100.00
63903;BME280;50072;50.678;13.938;2023-08-06T09:21:16;98347.66;;;17.02;100.00
63903;BME280;50072;50.678;13.938;2023-08-06T09:23:42;98344.78;;;17.17;100.00
63903;BME280;50072;50.678;13.938;2023-08-06T09:26:11;98343.44;;;17.35;100.00
63903;BME280;50072;50.678;13.938;2023-08-06T09:28:38;98338.91;;;17.36;100.00
63903;BME280;50072;50.678;13.938;2023-08-06T09:31:04;98339.63;;;17.38;100.00
63903;BME280;50072;50.678;13.938;2023-08-06T09:33:30;98345.84;;;17.27;100.00
63903;BME280;50072;50.678;13.938;2023-08-06T09:35:56;98340.38;;;17.03;100.00
63903;BME280;50072;50.678;13.938;2023-08-06T09:38:24;98332.31;;;16.90;100.00
63903;BME280;50072;50.678;13.938;2023-08-06T09:40:50;98332.41;;;17.01;100.00
63903;BME280;50072;50.678;13.938;2023-08-06T09:43:18;98330.88;;;16.97;100.00
63903;BME280;50072;50.678;13.938;2023-08-06T09:45:44;98334.28;;;16.88;100.00
63903;BME280;50072;50.678;13.938;2023-08-06T09:48:10;98328.00;;;17.00;100.00
63903;BME280;50072;50.678;13.938;2023-08-06T09:50:38;98327.75;;;17.03;100.00
63903;BME280;50072;50.678;13.938;2023-08-06T09:53:06;98323.81;;;17.20;100.00
63903;BME280;50072;50.678;13.938;2023-08-06T09:55:34;98323.50;;;17.12;100.00
63903;BME280;50072;50.678;13.938;2023-08-06T09:58:02;98316.38;;;17.35;100.00
63903;BME280;50072;50.678;13.938;2023-08-06T10:00:28;98314.78;;;17.57;100.00
63903;BME280;50072;50.678;13.938;2023-08-06T10:02:59;98316.09;;;17.51;100.00
63903;BME280;50072;50.678;13.938;2023-08-06T10:05:28;98318.53;;;17.91;100.00
63903;BME280;50072;50.678;13.938;2023-08-06T10:07:56;98314.28;;;18.11;100.00
63903;BME280;50072;50.678;13.938;2023-08-06T10:10:23;98306.16;;;18.23;100.00
63903;BME280;50072;50.678;13.938;2023-08-06T10:12:52;98304.09;;;18.38;100.00
63903;BME280;50072;50.678;13.938;2023-08-06T10:15:26;98304.22;;;18.36;100.00
63903;BME280;50072;50.678;13.938;2023-08-06T10:17:55;98308.59;;;18.15;100.00
63903;BME280;50072;50.678;13.938;2023-08-06T10:20:21;98302.56;;;18.11;100.00
63903;BME280;50072;50.678;13.938;2023-08-06T10:23:14;98305.34;;;17.98;100.00
63903;BME280;50072;50.678;13.938;2023-08-06T10:25:41;98295.59;;;17.84;100.00
63903;BME280;50072;50.678;13.938;2023-08-06T10:28:11;98298.69;;;17.67;100.00
63903;BME280;50072;50.678;13.938;2023-08-06T10:30:46;98296.34;;;17.62;100.00
63903;BME280;50072;50.678;13.938;2023-08-06T10:33:13;98292.16;;;17.58;100.00
63903;BME280;50072;50.678;13.938;2023-08-06T10:35:48;98288.16;;;17.75;100.00
63903;BME280;50072;50.678;13.938;2023-08-06T10:38:20;98290.53;;;17.55;100.00
63903;BME280;50072;50.678;13.938;2023-08-06T10:43:30;98288.91;;;17.77;100.00
63903;BME280;50072;50.678;13.938;2023-08-06T10:45:59;98287.81;;;17.80;100.00
63903;BME280;50072;50.678;13.938;2023-08-06T10:48:33;98286.41;;;17.98;100.00
63903;BME280;50072;50.678;13.938;2023-08-06T10:51:00;98278.56;;;17.71;100.00
63903;BME280;50072;50.678;13.938;2023-08-06T10:53:27;98269.53;;;17.59;100.00
63903;BME280;50072;50.678;13.938;2023-08-06T10:55:54;98269.50;;;17.83;100.00
63903;BME280;50072;50.678;13.938;2023-08-06T10:58:20;98270.75;;;17.55;100.00
63903;BME280;50072;50.678;13.938;2023-08-06T11:00:46;98270.22;;;17.50;100.00
63903;BME280;50072;50.678;13.938;2023-08-06T11:03:12;98260.47;;;17.60;100.00
63903;BME280;50072;50.678;13.938;2023-08-06T11:05:38;98262.44;;;17.69;100.00
63903;BME280;50072;50.678;13.938;2023-08-06T11:08:05;98265.31;;;17.79;100.00
63903;BME280;50072;50.678;13.938;2023-08-06T11:10:33;98256.31;;;17.90;100.00
63903;BME280;50072;50.678;13.938;2023-08-06T11:13:05;98261.94;;;18.00;100.00
63903;BME280;50072;50.678;13.938;2023-08-06T11:15:33;98265.75;;;18.08;100.00
63903;BME280;50072;50.678;13.938;2023-08-06T11:17:59;98252.13;;;18.21;100.00
63903;BME280;50072;50.678;13.938;2023-08-06T11:20:25;98256.28;;;18.25;100.00
63903;BME280;50072;50.678;13.938;2023-08-06T11:22:51;98255.69;;;18.33;100.00
63903;BME280;50072;50.678;13.938;2023-08-06T11:25:20;98256.19;;;18.38;100.00
63903;BME280;50072;50.678;13.938;2023-08-06T11:27:46;98249.31;;;18.45;100.00
63903;BME280;50072;50.678;13.938;2023-08-06T11:30:12;98254.09;;;18.42;100.00
63903;BME280;50072;50.678;13.938;2023-08-06T11:32:47;98254.59;;;18.58;100.00
63903;BME280;50072;50.678;13.938;2023-08-06T11:35:15;98251.97;;;18.68;100.00
63903;BME280;50072;50.678;13.938;2023-08-06T11:37:47;98254.47;;;18.83;100.00
63903;BME280;50072;50.678;13.938;2023-08-06T11:40:14;98256.16;;;18.95;100.00
63903;BME280;50072;50.678;13.938;2023-08-06T11:42:41;98261.13;;;18.90;100.00
63903;BME280;50072;50.678;13.938;2023-08-06T11:45:08;98263.34;;;18.62;100.00
63903;BME280;50072;50.678;13.938;2023-08-06T11:47:38;98267.00;;;18.50;100.00
63903;BME280;50072;50.678;13.938;2023-08-06T11:50:07;98268.63;;;18.41;100.00
63903;BME280;50072;50.678;13.938;2023-08-06T11:52:33;98266.03;;;18.39;100.00
63903;BME280;50072;50.678;13.938;2023-08-06T11:57:29;98258.88;;;18.61;100.00
63903;BME280;50072;50.678;13.938;2023-08-06T12:00:04;98255.44;;;18.82;100.00
63903;BME280;50072;50.678;13.938;2023-08-06T12:02:34;98257.78;;;18.75;100.00
63903;BME280;50072;50.678;13.938;2023-08-06T12:05:10;98255.88;;;19.09;100.00
63903;BME280;50072;50.678;13.938;2023-08-06T12:07:42;98247.06;;;19.40;100.00
63903;BME280;50072;50.678;13.938;2023-08-06T12:10:11;98251.38;;;19.63;100.00
63903;BME280;50072;50.678;13.938;2023-08-06T12:12:37;98244.03;;;19.87;100.00
63903;BME280;50072;50.678;13.938;2023-08-06T12:15:12;98246.91;;;19.95;100.00
63903;BME280;50072;50.678;13.938;2023-08-06T12:17:39;98242.59;;;19.92;100.00
63903;BME280;50072;50.678;13.938;2023-08-06T12:20:07;98233.06;;;19.98;100.00
63903;BME280;50072;50.678;13.938;2023-08-06T12:22:34;98240.25;;;20.30;100.00
63903;BME280;50072;50.678;13.938;2023-08-06T12:25:02;98230.25;;;20.30;100.00
63903;BME280;50072;50.678;13.938;2023-08-06T12:27:29;98238.03;;;20.14;100.00
63903;BME280;50072;50.678;13.938;2023-08-06T12:29:55;98235.09;;;20.27;100.00
63903;BME280;50072;50.678;13.938;2023-08-06T12:32:21;98236.59;;;19.89;100.00
63903;BME280;50072;50.678;13.938;2023-08-06T12:34:47;98234.59;;;19.91;100.00
63903;BME280;50072;50.678;13.938;2023-08-06T12:37:13;98237.78;;;19.96;100.00
63903;BME280;50072;50.678;13.938;2023-08-06T12:39:39;98243.31;;;19.73;100.00
63903;BME280;50072;50.678;13.938;2023-08-06T12:42:06;98232.44;;;19.73;100.00
63903;BME280;50072;50.678;13.938;2023-08-06T12:44:32;98235.34;;;19.93;100.00
63903;BME280;50072;50.678;13.938;2023-08-06T12:46:58;98233.53;;;20.03;100.00
63903;BME280;50072;50.678;13.938;2023-08-06T12:49:25;98233.53;;;20.03;100.00
63903;BME280;50072;50.678;13.938;2023-08-06T12:51:52;98247.25;;;20.02;100.00